sensor_id;sensor_type;location;lat;lon;timestamp;pressure;altitude;pressure_sealevel;temperature;humidity
64189;BME280;50493;50.970;10.082;2022-07-29T00:02:13;99316.53;;;22.10;33.78
64189;BME280;50493;50.970;10.082;2022-07-29T00:04:40;99315.53;;;22.11;33.70
64189;BME280;50493;50.970;10.082;2022-07-29T00:07:05;99318.41;;;22.21;30.50
64189;BME280;50493;50.970;10.082;2022-07-29T00:09:31;99312.53;;;22.29;33.62
64189;BME280;50493;50.970;10.082;2022-07-29T00:11:59;99316.38;;;22.25;33.55
64189;BME280;50493;50.970;10.082;2022-07-29T00:14:25;99324.25;;;22.26;33.54
64189;BME280;50493;50.970;10.082;2022-07-29T00:16:50;99319.31;;;22.33;33.20
64189;BME280;50493;50.970;10.082;2022-07-29T00:19:15;99315.09;;;22.30;32.87
64189;BME280;50493;50.970;10.082;2022-07-29T00:21:42;99308.50;;;22.23;33.14
64189;BME280;50493;50.970;10.082;2022-07-29T00:24:07;99308.38;;;22.25;29.87
64189;BME280;50493;50.970;10.082;2022-07-29T00:26:33;99308.06;;;22.16;31.15
64189;BME280;50493;50.970;10.082;2022-07-29T00:28:59;99307.38;;;21.88;33.45
64189;BME280;50493;50.970;10.082;2022-07-29T00:31:24;99310.25;;;21.85;33.80
64189;BME280;50493;50.970;10.082;2022-07-29T00:33:49;99310.38;;;21.71;33.71
64189;BME280;50493;50.970;10.082;2022-07-29T00:36:15;99301.22;;;21.62;30.43
64189;BME280;50493;50.970;10.082;2022-07-29T00:38:41;99295.72;;;21.38;34.45
64189;BME280;50493;50.970;10.082;2022-07-29T00:41:10;99290.66;;;21.61;34.21
64189;BME280;50493;50.970;10.082;2022-07-29T00:43:35;99279.59;;;21.80;32.49
64189;BME280;50493;50.970;10.082;2022-07-29T00:46:01;99275.03;;;21.69;33.40
64189;BME280;50493;50.970;10.082;2022-07-29T00:48:26;99275.34;;;21.77;33.50
64189;BME280;50493;50.970;10.082;2022-07-29T00:50:52;99272.16;;;21.72;33.90
64189;BME280;50493;50.970;10.082;2022-07-29T00:53:19;99266.53;;;21.64;33.93
64189;BME280;50493;50.970;10.082;2022-07-29T00:55:46;99261.19;;;21.64;33.84
64189;BME280;50493;50.970;10.082;2022-07-29T00:58:12;99263.66;;;21.67;31.32
64189;BME280;50493;50.970;10.082;2022-07-29T01:00:39;99263.66;;;21.67;33.47
64189;BME280;50493;50.970;10.082;2022-07-29T01:03:05;99263.81;;;21.38;33.99
64189;BME280;50493;50.970;10.082;2022-07-29T01:05:31;99263.34;;;20.93;34.97
64189;BME280;50493;50.970;10.082;2022-07-29T01:07:57;99261.25;;;21.11;34.62
64189;BME280;50493;50.970;10.082;2022-07-29T01:10:23;99263.41;;;21.31;32.75
64189;BME280;50493;50.970;10.082;2022-07-29T01:12:52;99251.91;;;21.31;34.14
64189;BME280;50493;50.970;10.082;2022-07-29T01:15:19;99246.41;;;21.21;34.44
64189;BME280;50493;50.970;10.082;2022-07-29T01:17:51;99256.41;;;21.43;33.89
64189;BME280;50493;50.970;10.082;2022-07-29T01:20:21;99250.66;;;21.49;33.91
64189;BME280;50493;50.970;10.082;2022-07-29T01:23:01;99247.75;;;21.39;31.41
64189;BME280;50493;50.970;10.082;2022-07-29T01:25:44;99244.22;;;20.73;34.57
64189;BME280;50493;50.970;10.082;2022-07-29T01:28:32;99244.34;;;20.71;34.77
64189;BME280;50493;50.970;10.082;2022-07-29T01:31:00;99239.91;;;20.72;33.32
64189;BME280;50493;50.970;10.082;2022-07-29T01:33:28;99241.66;;;20.99;34.59
64189;BME280;50493;50.970;10.082;2022-07-29T01:36:18;99232.72;;;20.87;34.67
64189;BME280;50493;50.970;10.082;2022-07-29T01:39:05;99231.09;;;20.84;33.61
64189;BME280;50493;50.970;10.082;2022-07-29T01:41:32;99239.91;;;20.72;35.12
64189;BME280;50493;50.970;10.082;2022-07-29T01:44:10;99244.56;;;20.81;34.74
64189;BME280;50493;50.970;10.082;2022-07-29T01:46:40;99242.09;;;20.93;34.51
64189;BME280;50493;50.970;10.082;2022-07-29T01:49:10;99238.84;;;20.87;34.37
64189;BME280;50493;50.970;10.082;2022-07-29T01:51:41;99235.84;;;20.94;34.35
64189;BME280;50493;50.970;10.082;2022-07-29T01:54:13;99239.88;;;21.12;32.31
64189;BME280;50493;50.970;10.082;2022-07-29T01:56:40;99231.41;;;20.80;34.27
64189;BME280;50493;50.970;10.082;2022-07-29T01:59:10;99232.84;;;20.16;35.17
64189;BME280;50493;50.970;10.082;2022-07-29T02:01:37;99233.25;;;20.65;35.10
64189;BME280;50493;50.970;10.082;2022-07-29T02:04:06;99235.19;;;20.63;34.98
64189;BME280;50493;50.970;10.082;2022-07-29T02:06:33;99227.22;;;20.63;33.29
64189;BME280;50493;50.970;10.082;2022-07-29T02:09:00;99229.06;;;20.75;33.28
64189;BME280;50493;50.970;10.082;2022-07-29T02:11:27;99225.91;;;20.55;33.02
64189;BME280;50493;50.970;10.082;2022-07-29T02:13:56;99223.81;;;20.61;34.88
64189;BME280;50493;50.970;10.082;2022-07-29T02:16:26;99218.69;;;20.58;33.76
64189;BME280;50493;50.970;10.082;2022-07-29T02:18:54;99215.38;;;20.54;33.26
64189;BME280;50493;50.970;10.082;2022-07-29T02:21:24;99204.38;;;20.60;34.83
64189;BME280;50493;50.970;10.082;2022-07-29T02:23:51;99198.63;;;20.53;34.92
64189;BME280;50493;50.970;10.082;2022-07-29T02:26:19;99196.91;;;20.52;33.51
64189;BME280;50493;50.970;10.082;2022-07-29T02:28:46;99196.97;;;20.38;35.03
64189;BME280;50493;50.970;10.082;2022-07-29T02:31:13;99200.97;;;20.31;35.32
64189;BME280;50493;50.970;10.082;2022-07-29T02:33:40;99197.94;;;20.37;33.95
64189;BME280;50493;50.970;10.082;2022-07-29T02:36:06;99189.00;;;20.38;34.71
64189;BME280;50493;50.970;10.082;2022-07-29T02:38:34;99187.50;;;20.34;34.00
64189;BME280;50493;50.970;10.082;2022-07-29T02:41:18;99194.97;;;20.00;34.01
64189;BME280;50493;50.970;10.082;2022-07-29T02:43:47;99187.44;;;19.79;35.63
64189;BME280;50493;50.970;10.082;2022-07-29T02:46:18;99193.09;;;19.73;34.53
64189;BME280;50493;50.970;10.082;2022-07-29T02:48:48;99197.81;;;19.97;35.63
64189;BME280;50493;50.970;10.082;2022-07-29T02:51:19;99192.03;;;20.04;35.66
64189;BME280;50493;50.970;10.082;2022-07-29T02:53:51;99188.81;;;19.99;35.79
64189;BME280;50493;50.970;10.082;2022-07-29T02:56:23;99193.06;;;20.02;35.44
64189;BME280;50493;50.970;10.082;2022-07-29T02:58:53;99185.69;;;20.07;35.39
64189;BME280;50493;50.970;10.082;2022-07-29T03:01:21;99179.63;;;19.91;34.55
64189;BME280;50493;50.970;10.082;2022-07-29T03:03:49;99182.84;;;19.96;35.09
64189;BME280;50493;50.970;10.082;2022-07-29T03:06:17;99182.66;;;19.99;34.84
64189;BME280;50493;50.970;10.082;2022-07-29T03:08:43;99197.09;;;19.80;35.30
64189;BME280;50493;50.970;10.082;2022-07-29T03:11:10;99191.47;;;19.85;35.81
64189;BME280;50493;50.970;10.082;2022-07-29T03:13:36;99192.34;;;19.85;35.41
64189;BME280;50493;50.970;10.082;2022-07-29T03:16:03;99197.72;;;19.98;35.30
64189;BME280;50493;50.970;10.082;2022-07-29T03:18:30;99199.16;;;19.90;35.38
64189;BME280;50493;50.970;10.082;2022-07-29T03:20:57;99197.03;;;19.95;34.55
64189;BME280;50493;50.970;10.082;2022-07-29T03:23:23;99190.75;;;19.68;36.11
64189;BME280;50493;50.970;10.082;2022-07-29T03:25:49;99190.44;;;19.87;35.49
64189;BME280;50493;50.970;10.082;2022-07-29T03:28:15;99190.84;;;19.81;35.62
64189;BME280;50493;50.970;10.082;2022-07-29T03:30:40;99195.22;;;19.53;35.99
64189;BME280;50493;50.970;10.082;2022-07-29T03:33:05;99210.09;;;19.70;35.83
64189;BME280;50493;50.970;10.082;2022-07-29T03:35:31;99205.97;;;19.94;35.21
64189;BME280;50493;50.970;10.082;2022-07-29T03:37:58;99206.63;;;19.97;35.02
64189;BME280;50493;50.970;10.082;2022-07-29T03:40:26;99203.59;;;19.89;34.59
64189;BME280;50493;50.970;10.082;2022-07-29T03:42:53;99207.69;;;19.66;35.61
64189;BME280;50493;50.970;10.082;2022-07-29T03:45:21;99203.34;;;19.65;34.79
64189;BME280;50493;50.970;10.082;2022-07-29T03:47:50;99204.13;;;19.67;35.29
64189;BME280;50493;50.970;10.082;2022-07-29T03:50:16;99199.47;;;19.70;35.34
64189;BME280;50493;50.970;10.082;2022-07-29T03:52:44;99202.97;;;19.71;35.27
64189;BME280;50493;50.970;10.082;2022-07-29T03:55:12;99199.75;;;19.51;35.98
64189;BME280;50493;50.970;10.082;2022-07-29T03:57:39;99203.72;;;19.44;35.82
64189;BME280;50493;50.970;10.082;2022-07-29T04:00:06;99200.09;;;19.31;35.81
64189;BME280;50493;50.970;10.082;2022-07-29T04:02:32;99203.47;;;19.04;36.66
64189;BME280;50493;50.970;10.082;2022-07-29T04:04:57;99195.81;;;19.28;36.13
64189;BME280;50493;50.970;10.082;2022-07-29T04:07:23;99198.44;;;19.44;35.64
64189;BME280;50493;50.970;10.082;2022-07-29T04:09:48;99201.66;;;19.49;35.69
64189;BME280;50493;50.970;10.082;2022-07-29T04:12:15;99205.59;;;19.28;36.14
64189;BME280;50493;50.970;10.082;2022-07-29T04:14:40;99210.75;;;19.45;35.86
64189;BME280;50493;50.970;10.082;2022-07-29T04:17:06;99203.53;;;19.47;35.74
64189;BME280;50493;50.970;10.082;2022-07-29T04:19:32;99205.25;;;19.48;35.70
64189;BME280;50493;50.970;10.082;2022-07-29T04:21:58;99202.00;;;19.29;35.97
64189;BME280;50493;50.970;10.082;2022-07-29T04:24:24;99209.59;;;19.35;35.87
64189;BME280;50493;50.970;10.082;2022-07-29T04:26:49;99205.81;;;19.39;35.86
64189;BME280;50493;50.970;10.082;2022-07-29T04:29:16;99207.88;;;19.34;35.55
64189;BME280;50493;50.970;10.082;2022-07-29T04:31:42;99209.44;;;19.38;35.47
64189;BME280;50493;50.970;10.082;2022-07-29T04:34:08;99209.50;;;19.51;35.46
64189;BME280;50493;50.970;10.082;2022-07-29T04:36:34;99208.84;;;19.47;35.62
64189;BME280;50493;50.970;10.082;2022-07-29T04:38:59;99201.09;;;19.44;35.41
64189;BME280;50493;50.970;10.082;2022-07-29T04:41:26;99198.38;;;19.30;35.48
64189;BME280;50493;50.970;10.082;2022-07-29T04:43:52;99202.88;;;19.44;35.60
64189;BME280;50493;50.970;10.082;2022-07-29T04:46:19;99198.53;;;19.43;35.45
64189;BME280;50493;50.970;10.082;2022-07-29T04:48:45;99191.88;;;19.50;35.08
64189;BME280;50493;50.970;10.082;2022-07-29T04:51:11;99203.00;;;19.42;35.45
64189;BME280;50493;50.970;10.082;2022-07-29T04:53:36;99195.78;;;19.44;35.33
64189;BME280;50493;50.970;10.082;2022-07-29T04:56:01;99191.19;;;19.32;35.50
64189;BME280;50493;50.970;10.082;2022-07-29T04:58:27;99193.31;;;19.41;35.74
64189;BME280;50493;50.970;10.082;2022-07-29T05:00:52;99195.78;;;19.59;35.86
64189;BME280;50493;50.970;10.082;2022-07-29T05:03:19;99207.78;;;19.50;35.32
64189;BME280;50493;50.970;10.082;2022-07-29T05:05:44;99213.22;;;19.77;34.93
64189;BME280;50493;50.970;10.082;2022-07-29T05:08:10;99213.16;;;19.92;34.35
64189;BME280;50493;50.970;10.082;2022-07-29T05:10:35;99205.97;;;19.94;34.68
64189;BME280;50493;50.970;10.082;2022-07-29T05:13:03;99203.09;;;20.11;34.13
64189;BME280;50493;50.970;10.082;2022-07-29T05:15:29;99207.06;;;20.04;34.53
64189;BME280;50493;50.970;10.082;2022-07-29T05:17:54;99205.44;;;20.70;33.18
64189;BME280;50493;50.970;10.082;2022-07-29T05:20:21;99204.69;;;21.21;32.16
64189;BME280;50493;50.970;10.082;2022-07-29T05:22:51;99212.25;;;21.15;33.09
64189;BME280;50493;50.970;10.082;2022-07-29T05:25:16;99211.91;;;20.53;33.95
64189;BME280;50493;50.970;10.082;2022-07-29T05:27:42;99209.88;;;20.30;34.60
64189;BME280;50493;50.970;10.082;2022-07-29T05:30:08;99204.63;;;20.15;33.89
64189;BME280;50493;50.970;10.082;2022-07-29T05:32:33;99210.50;;;20.06;34.49
64189;BME280;50493;50.970;10.082;2022-07-29T05:34:59;99211.28;;;19.94;34.85
64189;BME280;50493;50.970;10.082;2022-07-29T05:37:25;99206.75;;;19.67;34.59
64189;BME280;50493;50.970;10.082;2022-07-29T05:39:51;99219.34;;;19.63;35.23
64189;BME280;50493;50.970;10.082;2022-07-29T05:42:16;99215.28;;;19.72;34.64
64189;BME280;50493;50.970;10.082;2022-07-29T05:44:41;99223.41;;;19.98;35.30
64189;BME280;50493;50.970;10.082;2022-07-29T05:47:07;99221.06;;;19.64;35.44
64189;BME280;50493;50.970;10.082;2022-07-29T05:49:32;99220.19;;;19.35;35.65
64189;BME280;50493;50.970;10.082;2022-07-29T05:51:58;99217.53;;;19.35;36.58
64189;BME280;50493;50.970;10.082;2022-07-29T05:54:24;99215.66;;;19.51;35.32
64189;BME280;50493;50.970;10.082;2022-07-29T05:56:50;99218.41;;;19.50;36.16
64189;BME280;50493;50.970;10.082;2022-07-29T05:59:16;99224.09;;;19.87;35.75
64189;BME280;50493;50.970;10.082;2022-07-29T06:01:41;99223.78;;;19.92;34.40
64189;BME280;50493;50.970;10.082;2022-07-29T06:04:06;99219.25;;;19.79;35.69
64189;BME280;50493;50.970;10.082;2022-07-29T06:06:32;99213.28;;;19.76;34.50
64189;BME280;50493;50.970;10.082;2022-07-29T06:08:57;99221.63;;;19.55;35.08
64189;BME280;50493;50.970;10.082;2022-07-29T06:11:24;99212.72;;;19.42;36.45
64189;BME280;50493;50.970;10.082;2022-07-29T06:13:49;99232.31;;;19.39;35.28
64189;BME280;50493;50.970;10.082;2022-07-29T06:16:15;99228.91;;;19.51;35.17
64189;BME280;50493;50.970;10.082;2022-07-29T06:18:40;99224.91;;;19.73;34.81
64189;BME280;50493;50.970;10.082;2022-07-29T06:21:08;99224.63;;;20.21;34.97
64189;BME280;50493;50.970;10.082;2022-07-29T06:23:33;99218.25;;;20.24;35.18
64189;BME280;50493;50.970;10.082;2022-07-29T06:25:59;99218.47;;;20.06;34.11
64189;BME280;50493;50.970;10.082;2022-07-29T06:28:26;99209.63;;;20.20;35.03
64189;BME280;50493;50.970;10.082;2022-07-29T06:30:51;99208.34;;;20.40;34.77
64189;BME280;50493;50.970;10.082;2022-07-29T06:33:18;99210.34;;;20.64;34.35
64189;BME280;50493;50.970;10.082;2022-07-29T06:35:44;99215.16;;;20.44;33.53
64189;BME280;50493;50.970;10.082;2022-07-29T06:38:10;99208.78;;;20.47;33.22
64189;BME280;50493;50.970;10.082;2022-07-29T06:40:36;99208.94;;;20.98;33.41
64189;BME280;50493;50.970;10.082;2022-07-29T06:43:20;99218.44;;;21.15;32.34
64189;BME280;50493;50.970;10.082;2022-07-29T06:45:47;99216.16;;;20.56;33.50
64189;BME280;50493;50.970;10.082;2022-07-29T06:48:12;99215.88;;;20.74;33.16
64189;BME280;50493;50.970;10.082;2022-07-29T06:50:37;99214.91;;;20.34;34.34
64189;BME280;50493;50.970;10.082;2022-07-29T06:53:03;99228.38;;;20.59;34.55
64189;BME280;50493;50.970;10.082;2022-07-29T06:55:28;99223.75;;;20.88;34.39
64189;BME280;50493;50.970;10.082;2022-07-29T06:57:54;99231.91;;;20.45;34.94
64189;BME280;50493;50.970;10.082;2022-07-29T07:00:19;99234.97;;;20.66;33.07
64189;BME280;50493;50.970;10.082;2022-07-29T07:02:46;99239.81;;;21.27;33.38
64189;BME280;50493;50.970;10.082;2022-07-29T07:05:11;99236.06;;;21.42;31.66
64189;BME280;50493;50.970;10.082;2022-07-29T07:07:37;99234.25;;;21.30;31.99
64189;BME280;50493;50.970;10.082;2022-07-29T07:10:03;99241.06;;;21.34;31.71
64189;BME280;50493;50.970;10.082;2022-07-29T07:12:28;99243.59;;;21.10;33.75
64189;BME280;50493;50.970;10.082;2022-07-29T07:14:54;99244.78;;;21.57;31.55
64189;BME280;50493;50.970;10.082;2022-07-29T07:17:19;99249.50;;;22.16;32.69
64189;BME280;50493;50.970;10.082;2022-07-29T07:19:46;99243.38;;;22.03;30.48
64189;BME280;50493;50.970;10.082;2022-07-29T07:22:11;99239.16;;;22.62;30.48
64189;BME280;50493;50.970;10.082;2022-07-29T07:24:36;99237.56;;;22.35;30.08
64189;BME280;50493;50.970;10.082;2022-07-29T07:27:02;99241.75;;;22.50;30.56
64189;BME280;50493;50.970;10.082;2022-07-29T07:29:28;99243.28;;;22.42;30.99
64189;BME280;50493;50.970;10.082;2022-07-29T07:31:53;99251.06;;;21.95;31.39
64189;BME280;50493;50.970;10.082;2022-07-29T07:34:19;99244.78;;;22.33;30.76
64189;BME280;50493;50.970;10.082;2022-07-29T07:36:46;99257.69;;;22.39;31.36
64189;BME280;50493;50.970;10.082;2022-07-29T07:39:11;99263.06;;;22.75;29.75
64189;BME280;50493;50.970;10.082;2022-07-29T07:41:36;99272.19;;;22.35;30.34
64189;BME280;50493;50.970;10.082;2022-07-29T07:44:02;99268.53;;;21.73;31.70
64189;BME280;50493;50.970;10.082;2022-07-29T07:46:27;99267.44;;;22.01;31.96
64189;BME280;50493;50.970;10.082;2022-07-29T07:48:52;99260.63;;;22.10;30.95
64189;BME280;50493;50.970;10.082;2022-07-29T07:51:18;99260.75;;;22.33;30.83
64189;BME280;50493;50.970;10.082;2022-07-29T07:53:44;99255.34;;;21.84;31.46
64189;BME280;50493;50.970;10.082;2022-07-29T07:56:10;99255.13;;;21.49;32.19
64189;BME280;50493;50.970;10.082;2022-07-29T07:58:36;99254.06;;;21.38;32.62
64189;BME280;50493;50.970;10.082;2022-07-29T08:01:01;99251.81;;;21.19;32.95
64189;BME280;50493;50.970;10.082;2022-07-29T08:03:26;99245.53;;;21.20;33.09
64189;BME280;50493;50.970;10.082;2022-07-29T08:05:52;99252.88;;;21.30;32.98
64189;BME280;50493;50.970;10.082;2022-07-29T08:08:19;99256.16;;;21.46;33.13
64189;BME280;50493;50.970;10.082;2022-07-29T08:10:46;99248.84;;;21.37;33.18
64189;BME280;50493;50.970;10.082;2022-07-29T08:13:18;99252.44;;;21.10;33.57
64189;BME280;50493;50.970;10.082;2022-07-29T08:15:44;99241.19;;;21.19;33.67
64189;BME280;50493;50.970;10.082;2022-07-29T08:18:10;99237.91;;;21.54;33.25
64189;BME280;50493;50.970;10.082;2022-07-29T08:20:37;99241.41;;;21.68;32.75
64189;BME280;50493;50.970;10.082;2022-07-29T08:23:04;99237.56;;;21.46;33.01
64189;BME280;50493;50.970;10.082;2022-07-29T08:25:31;99244.50;;;21.36;33.41
64189;BME280;50493;50.970;10.082;2022-07-29T08:27:57;99233.19;;;21.84;32.99
64189;BME280;50493;50.970;10.082;2022-07-29T08:30:23;99231.06;;;22.02;32.39
64189;BME280;50493;50.970;10.082;2022-07-29T08:32:48;99235.31;;;21.92;32.82
64189;BME280;50493;50.970;10.082;2022-07-29T08:35:15;99224.72;;;21.66;34.54
64189;BME280;50493;50.970;10.082;2022-07-29T08:37:41;99224.69;;;21.92;35.77
64189;BME280;50493;50.970;10.082;2022-07-29T08:40:07;99211.50;;;21.51;34.44
64189;BME280;50493;50.970;10.082;2022-07-29T08:42:33;99202.69;;;21.25;33.92
64189;BME280;50493;50.970;10.082;2022-07-29T08:44:59;99199.38;;;21.47;33.31
64189;BME280;50493;50.970;10.082;2022-07-29T08:47:25;99204.63;;;21.36;33.72
64189;BME280;50493;50.970;10.082;2022-07-29T08:49:52;99209.81;;;21.37;33.62
64189;BME280;50493;50.970;10.082;2022-07-29T08:52:18;99206.63;;;21.45;33.91
64189;BME280;50493;50.970;10.082;2022-07-29T08:54:45;99201.94;;;21.49;33.77
64189;BME280;50493;50.970;10.082;2022-07-29T08:57:12;99198.75;;;21.31;33.74
64189;BME280;50493;50.970;10.082;2022-07-29T08:59:40;99210.25;;;21.18;34.12
64189;BME280;50493;50.970;10.082;2022-07-29T09:02:12;99212.38;;;21.65;33.52
64189;BME280;50493;50.970;10.082;2022-07-29T09:04:41;99211.41;;;21.66;35.46
64189;BME280;50493;50.970;10.082;2022-07-29T09:07:06;99212.47;;;21.63;33.26
64189;BME280;50493;50.970;10.082;2022-07-29T09:09:33;99215.91;;;22.02;34.29
64189;BME280;50493;50.970;10.082;2022-07-29T09:11:58;99211.19;;;22.19;32.62
64189;BME280;50493;50.970;10.082;2022-07-29T09:14:24;99211.63;;;22.50;33.44
64189;BME280;50493;50.970;10.082;2022-07-29T09:16:52;99215.84;;;22.28;33.93
64189;BME280;50493;50.970;10.082;2022-07-29T09:19:27;99210.09;;;22.21;33.70
64189;BME280;50493;50.970;10.082;2022-07-29T09:21:54;99212.97;;;22.55;34.02
64189;BME280;50493;50.970;10.082;2022-07-29T09:24:23;99210.50;;;22.41;31.94
64189;BME280;50493;50.970;10.082;2022-07-29T09:26:49;99217.38;;;22.68;31.37
64189;BME280;50493;50.970;10.082;2022-07-29T09:29:16;99214.81;;;23.02;33.10
64189;BME280;50493;50.970;10.082;2022-07-29T09:31:43;99214.63;;;23.05;32.48
64189;BME280;50493;50.970;10.082;2022-07-29T09:34:11;99212.22;;;23.25;31.70
64189;BME280;50493;50.970;10.082;2022-07-29T09:36:42;99205.00;;;23.61;32.25
64189;BME280;50493;50.970;10.082;2022-07-29T09:39:08;99207.19;;;24.01;31.78
64189;BME280;50493;50.970;10.082;2022-07-29T09:41:47;99207.56;;;23.85;30.25
64189;BME280;50493;50.970;10.082;2022-07-29T09:44:13;99213.34;;;24.89;30.54
64189;BME280;50493;50.970;10.082;2022-07-29T09:46:40;99208.31;;;24.96;30.53
64189;BME280;50493;50.970;10.082;2022-07-29T09:49:07;99200.66;;;25.95;28.83
64189;BME280;50493;50.970;10.082;2022-07-29T09:51:34;99202.69;;;25.41;28.20
64189;BME280;50493;50.970;10.082;2022-07-29T09:54:01;99209.72;;;26.04;27.76
64189;BME280;50493;50.970;10.082;2022-07-29T09:56:38;99206.16;;;25.63;29.03
64189;BME280;50493;50.970;10.082;2022-07-29T09:59:05;99202.53;;;25.64;29.67
64189;BME280;50493;50.970;10.082;2022-07-29T10:01:30;99198.91;;;24.80;28.73
64189;BME280;50493;50.970;10.082;2022-07-29T10:03:55;99195.50;;;25.72;27.39
64189;BME280;50493;50.970;10.082;2022-07-29T10:06:21;99191.97;;;25.41;28.89
64189;BME280;50493;50.970;10.082;2022-07-29T10:08:46;99184.16;;;23.77;31.93
64189;BME280;50493;50.970;10.082;2022-07-29T10:11:15;99180.38;;;24.46;30.16
64189;BME280;50493;50.970;10.082;2022-07-29T10:13:43;99178.22;;;24.61;31.22
64189;BME280;50493;50.970;10.082;2022-07-29T10:16:10;99177.53;;;24.80;29.09
64189;BME280;50493;50.970;10.082;2022-07-29T10:18:37;99174.38;;;25.38;28.02
64189;BME280;50493;50.970;10.082;2022-07-29T10:21:03;99171.19;;;25.23;28.91
64189;BME280;50493;50.970;10.082;2022-07-29T10:23:29;99167.88;;;25.10;28.81
64189;BME280;50493;50.970;10.082;2022-07-29T10:25:55;99168.28;;;25.27;28.76
64189;BME280;50493;50.970;10.082;2022-07-29T10:28:22;99163.91;;;25.56;28.07
64189;BME280;50493;50.970;10.082;2022-07-29T10:30:50;99168.97;;;25.29;29.51
64189;BME280;50493;50.970;10.082;2022-07-29T10:33:36;99157.78;;;25.14;29.02
64189;BME280;50493;50.970;10.082;2022-07-29T10:36:23;99163.25;;;24.91;29.09
64189;BME280;50493;50.970;10.082;2022-07-29T10:38:55;99161.34;;;25.55;28.48
64189;BME280;50493;50.970;10.082;2022-07-29T10:41:39;99160.44;;;24.93;29.42
64189;BME280;50493;50.970;10.082;2022-07-29T10:44:16;99154.84;;;25.88;28.09
64189;BME280;50493;50.970;10.082;2022-07-29T10:46:42;99154.97;;;25.77;28.47
64189;BME280;50493;50.970;10.082;2022-07-29T10:49:09;99151.41;;;26.56;27.34
64189;BME280;50493;50.970;10.082;2022-07-29T10:51:58;99149.72;;;26.36;27.38
64189;BME280;50493;50.970;10.082;2022-07-29T10:54:48;99145.63;;;26.90;26.50
64189;BME280;50493;50.970;10.082;2022-07-29T10:57:24;99146.28;;;26.24;28.23
64189;BME280;50493;50.970;10.082;2022-07-29T11:00:28;99147.97;;;26.05;27.88
64189;BME280;50493;50.970;10.082;2022-07-29T11:02:54;99141.91;;;27.39;26.20
64189;BME280;50493;50.970;10.082;2022-07-29T11:05:21;99140.97;;;27.68;26.04
64189;BME280;50493;50.970;10.082;2022-07-29T11:08:20;99143.00;;;25.81;27.42
64189;BME280;50493;50.970;10.082;2022-07-29T11:10:49;99137.16;;;26.85;26.30
64189;BME280;50493;50.970;10.082;2022-07-29T11:13:45;99138.97;;;26.16;27.28
64189;BME280;50493;50.970;10.082;2022-07-29T11:16:13;99137.03;;;28.08;24.71
64189;BME280;50493;50.970;10.082;2022-07-29T11:21:39;99132.69;;;27.14;26.63
64189;BME280;50493;50.970;10.082;2022-07-29T11:24:11;99133.41;;;27.53;24.87
64189;BME280;50493;50.970;10.082;2022-07-29T11:26:37;99128.22;;;27.70;25.43
64189;BME280;50493;50.970;10.082;2022-07-29T11:29:08;99127.78;;;27.74;25.87
64189;BME280;50493;50.970;10.082;2022-07-29T11:31:43;99124.25;;;27.74;24.78
64189;BME280;50493;50.970;10.082;2022-07-29T11:34:16;99124.56;;;27.71;26.31
64189;BME280;50493;50.970;10.082;2022-07-29T11:37:16;99120.56;;;27.75;26.04
64189;BME280;50493;50.970;10.082;2022-07-29T11:39:43;99116.66;;;28.15;26.02
64189;BME280;50493;50.970;10.082;2022-07-29T11:45:20;99113.34;;;26.43;26.77
64189;BME280;50493;50.970;10.082;2022-07-29T11:47:51;99115.47;;;27.16;25.26
64189;BME280;50493;50.970;10.082;2022-07-29T11:50:27;99113.13;;;26.94;25.75
64189;BME280;50493;50.970;10.082;2022-07-29T11:52:53;99113.00;;;27.61;25.97
64189;BME280;50493;50.970;10.082;2022-07-29T11:55:20;99124.13;;;27.94;26.60
64189;BME280;50493;50.970;10.082;2022-07-29T11:57:48;99108.34;;;28.27;25.67
64189;BME280;50493;50.970;10.082;2022-07-29T12:00:27;99111.63;;;28.02;26.43
64189;BME280;50493;50.970;10.082;2022-07-29T12:02:54;99112.91;;;27.80;26.87
64189;BME280;50493;50.970;10.082;2022-07-29T12:05:20;99114.50;;;28.37;26.42
64189;BME280;50493;50.970;10.082;2022-07-29T12:07:46;99112.91;;;27.80;24.77
64189;BME280;50493;50.970;10.082;2022-07-29T12:10:12;99105.13;;;27.59;25.20
64189;BME280;50493;50.970;10.082;2022-07-29T12:12:38;99101.03;;;29.07;23.89
64189;BME280;50493;50.970;10.082;2022-07-29T12:15:14;99112.03;;;28.62;24.90
64189;BME280;50493;50.970;10.082;2022-07-29T12:17:42;99099.34;;;29.06;24.47
64189;BME280;50493;50.970;10.082;2022-07-29T12:20:10;99100.97;;;30.36;23.85
64189;BME280;50493;50.970;10.082;2022-07-29T12:22:37;99095.19;;;30.06;21.68
64189;BME280;50493;50.970;10.082;2022-07-29T12:25:05;99094.50;;;29.96;24.79
64189;BME280;50493;50.970;10.082;2022-07-29T12:27:31;99100.31;;;28.97;25.86
64189;BME280;50493;50.970;10.082;2022-07-29T12:29:57;99091.13;;;29.08;25.86
64189;BME280;50493;50.970;10.082;2022-07-29T12:32:22;99092.16;;;29.41;25.44
64189;BME280;50493;50.970;10.082;2022-07-29T12:34:48;99084.13;;;29.58;25.69
64189;BME280;50493;50.970;10.082;2022-07-29T12:37:16;99076.34;;;30.14;22.78
64189;BME280;50493;50.970;10.082;2022-07-29T12:39:42;99079.69;;;30.00;24.39
64189;BME280;50493;50.970;10.082;2022-07-29T12:42:11;99084.41;;;29.89;24.96
64189;BME280;50493;50.970;10.082;2022-07-29T12:44:44;99066.56;;;30.79;23.74
64189;BME280;50493;50.970;10.082;2022-07-29T12:47:09;99066.09;;;30.26;24.62
64189;BME280;50493;50.970;10.082;2022-07-29T12:49:35;99065.56;;;30.39;25.02
64189;BME280;50493;50.970;10.082;2022-07-29T12:52:00;99063.56;;;30.24;22.47
64189;BME280;50493;50.970;10.082;2022-07-29T12:54:27;99063.66;;;29.31;22.60
64189;BME280;50493;50.970;10.082;2022-07-29T12:56:58;99056.34;;;30.25;25.54
64189;BME280;50493;50.970;10.082;2022-07-29T12:59:24;99046.13;;;30.77;22.15
64189;BME280;50493;50.970;10.082;2022-07-29T13:01:51;99053.38;;;29.77;21.90